createdAt,value
2023-05-17T00:00:14.416Z,45.89
2023-05-17T00:02:41.297Z,45.66
2023-05-17T00:05:08.606Z,45.87
2023-05-17T00:07:35.410Z,45.89
2023-05-17T00:10:02.158Z,45.90
2023-05-17T00:12:29.155Z,45.79
2023-05-17T00:14:55.913Z,45.85
2023-05-17T00:17:22.784Z,45.99
2023-05-17T00:19:49.575Z,46.06
2023-05-17T00:22:16.362Z,46.09
2023-05-17T00:24:43.127Z,46.14
2023-05-17T00:27:10.332Z,46.07
2023-05-17T00:29:37.168Z,46.29
2023-05-17T00:32:04.209Z,46.08
2023-05-17T00:34:31.062Z,45.95
2023-05-17T00:36:57.905Z,46.03
2023-05-17T00:39:24.729Z,45.94
2023-05-17T00:41:51.646Z,46.14
2023-05-17T00:44:18.428Z,46.07
2023-05-17T00:46:46.947Z,46.12
2023-05-17T00:49:13.773Z,46.13
2023-05-17T00:51:40.991Z,46.17
2023-05-17T00:54:08.051Z,46.23
2023-05-17T00:56:34.785Z,46.10
2023-05-17T00:59:02.359Z,46.10
2023-05-17T01:01:29.311Z,46.38
2023-05-17T01:03:56.609Z,46.42
2023-05-17T01:06:24.274Z,46.44
2023-05-17T01:08:51.760Z,46.49
2023-05-17T01:11:21.566Z,46.37
2023-05-17T01:13:55.726Z,46.50
2023-05-17T01:16:26.182Z,46.78
2023-05-17T01:18:57.810Z,46.75
2023-05-17T01:21:27.867Z,46.95
2023-05-17T01:24:00.251Z,47.05
2023-05-17T01:26:28.414Z,47.24
2023-05-17T01:28:55.353Z,47.14
2023-05-17T01:31:22.821Z,47.14
2023-05-17T01:33:49.858Z,47.25
2023-05-17T01:36:16.680Z,47.31
2023-05-17T01:38:43.485Z,47.30
2023-05-17T01:41:16.343Z,47.44
2023-05-17T01:43:43.551Z,47.69
2023-05-17T01:46:13.949Z,47.63
2023-05-17T01:48:43.446Z,47.78
2023-05-17T01:51:12.189Z,47.70
2023-05-17T01:53:43.195Z,47.71
2023-05-17T01:56:15.377Z,47.98
2023-05-17T01:58:45.182Z,47.87
2023-05-17T02:01:13.648Z,48.11
2023-05-17T02:03:40.512Z,48.03
2023-05-17T02:06:07.540Z,48.19
2023-05-17T02:08:34.313Z,47.99
2023-05-17T02:11:01.089Z,47.88
2023-05-17T02:13:27.938Z,48.00
2023-05-17T02:15:54.696Z,47.95
2023-05-17T02:18:22.089Z,48.02
2023-05-17T02:20:49.025Z,47.81
2023-05-17T02:23:16.367Z,48.11
2023-05-17T02:25:43.423Z,48.21
2023-05-17T02:28:11.121Z,48.24
2023-05-17T02:30:41.506Z,48.16
2023-05-17T02:33:08.598Z,47.98
2023-05-17T02:35:35.732Z,48.42
2023-05-17T02:38:02.549Z,48.23
2023-05-17T02:40:29.419Z,48.30
2023-05-17T02:42:56.171Z,48.28
2023-05-17T02:45:22.978Z,48.44
2023-05-17T02:47:49.754Z,48.29
2023-05-17T02:50:16.529Z,48.24
2023-05-17T02:52:43.449Z,48.30
2023-05-17T02:55:10.490Z,48.48
2023-05-17T02:57:37.294Z,48.52
2023-05-17T03:00:04.397Z,48.42
2023-05-17T03:02:31.538Z,48.37
2023-05-17T03:04:58.839Z,48.29
2023-05-17T03:07:25.662Z,48.51
2023-05-17T03:09:52.434Z,48.37
2023-05-17T03:12:19.375Z,48.62
2023-05-17T03:14:46.323Z,48.39
2023-05-17T03:17:13.059Z,48.63
2023-05-17T03:19:39.906Z,48.52
2023-05-17T03:22:06.780Z,48.52
2023-05-17T03:24:33.579Z,48.63
2023-05-17T03:27:00.497Z,48.67
2023-05-17T03:29:27.251Z,48.64
2023-05-17T03:31:54.020Z,48.59
2023-05-17T03:34:20.853Z,48.82
2023-05-17T03:36:47.598Z,48.71
2023-05-17T03:39:14.571Z,48.70
2023-05-17T03:41:42.338Z,48.92
2023-05-17T03:44:09.180Z,48.99
2023-05-17T03:46:35.922Z,49.14
2023-05-17T03:49:02.896Z,49.14
2023-05-17T03:51:30.020Z,49.37
2023-05-17T03:53:58.664Z,49.40
2023-05-17T03:56:25.513Z,49.28
2023-05-17T03:58:52.447Z,49.09
2023-05-17T04:01:20.567Z,49.19
2023-05-17T04:03:47.665Z,49.28
2023-05-17T04:06:14.997Z,49.60
2023-05-17T04:08:42.056Z,49.58
2023-05-17T04:11:11.943Z,49.62
2023-05-17T04:13:38.741Z,49.63
2023-05-17T04:16:05.930Z,49.77
2023-05-17T04:18:35.158Z,49.75
2023-05-17T04:21:02.233Z,49.84
2023-05-17T04:23:29.192Z,49.85
2023-05-17T04:25:57.077Z,49.83
2023-05-17T04:28:24.252Z,49.87
2023-05-17T04:30:51.169Z,49.80
2023-05-17T04:33:18.301Z,49.71
2023-05-17T04:35:46.031Z,49.66
2023-05-17T04:38:12.812Z,49.59
2023-05-17T04:40:39.840Z,49.86
2023-05-17T04:43:06.705Z,49.88
2023-05-17T04:45:34.179Z,50.06
2023-05-17T04:48:01.733Z,49.66
2023-05-17T04:50:28.642Z,49.99
2023-05-17T04:52:55.576Z,50.10
2023-05-17T04:55:22.479Z,49.97
2023-05-17T04:57:49.256Z,49.89
2023-05-17T05:00:16.427Z,49.91
2023-05-17T05:02:43.191Z,50.09
2023-05-17T05:05:11.064Z,49.85
2023-05-17T05:07:40.064Z,50.04
2023-05-17T05:10:07.382Z,49.98
2023-05-17T05:12:34.136Z,49.81
2023-05-17T05:15:01.334Z,50.08
2023-05-17T05:17:29.857Z,49.83
2023-05-17T05:19:57.334Z,50.03
2023-05-17T05:22:24.134Z,50.19
2023-05-17T05:24:52.124Z,50.03
2023-05-17T05:27:18.894Z,50.12
2023-05-17T05:29:46.221Z,50.14
2023-05-17T05:32:13.040Z,50.08
2023-05-17T05:34:40.201Z,50.05
2023-05-17T05:37:07.004Z,50.00
2023-05-17T05:39:33.810Z,50.14
2023-05-17T05:42:00.770Z,50.12
2023-05-17T05:44:27.617Z,50.12
2023-05-17T05:46:54.482Z,50.15
2023-05-17T05:49:21.277Z,50.32
2023-05-17T05:51:48.105Z,50.36
2023-05-17T05:54:15.159Z,50.40
2023-05-17T05:56:42.036Z,50.32
2023-05-17T05:59:08.944Z,50.15
2023-05-17T06:01:35.981Z,50.05
2023-05-17T06:04:02.825Z,50.39
2023-05-17T06:06:29.876Z,50.21
2023-05-17T06:08:59.478Z,50.24
2023-05-17T06:11:26.815Z,50.39
2023-05-17T06:13:54.916Z,50.31
2023-05-17T06:16:21.840Z,49.90
2023-05-17T06:18:51.403Z,49.37
2023-05-17T06:21:18.770Z,49.62
2023-05-17T06:23:45.767Z,46.13
2023-05-17T06:26:12.662Z,44.80
2023-05-17T06:28:39.686Z,44.00
2023-05-17T06:31:06.641Z,44.13
2023-05-17T06:33:33.572Z,44.30
2023-05-17T06:38:27.594Z,44.56
2023-05-17T06:40:54.914Z,44.77
2023-05-17T06:43:23.359Z,44.64
2023-05-17T06:45:50.478Z,45.15
2023-05-17T06:48:17.437Z,45.04
2023-05-17T06:50:44.455Z,45.25
2023-05-17T06:53:11.453Z,45.69
2023-05-17T06:55:38.552Z,45.79
2023-05-17T06:58:05.421Z,46.21
2023-05-17T07:00:32.771Z,46.06
2023-05-17T07:03:00.247Z,46.31
2023-05-17T07:05:29.503Z,46.29
2023-05-17T07:07:57.542Z,46.08
2023-05-17T07:10:24.447Z,46.29
2023-05-17T07:12:51.688Z,46.46
2023-05-17T07:15:18.700Z,46.84
2023-05-17T07:17:45.597Z,46.51
2023-05-17T07:20:13.434Z,47.35
2023-05-17T07:22:40.901Z,47.41
2023-05-17T07:25:08.670Z,47.99
2023-05-17T07:27:36.170Z,48.11
2023-05-17T07:30:04.391Z,47.97
2023-05-17T07:32:31.412Z,48.60
2023-05-17T07:34:58.538Z,48.41
2023-05-17T07:37:25.709Z,48.49
2023-05-17T07:39:52.915Z,48.08
2023-05-17T07:42:20.120Z,48.38
2023-05-17T07:44:49.042Z,48.60
2023-05-17T07:47:16.598Z,48.15
2023-05-17T07:49:44.644Z,48.10
2023-05-17T07:52:12.044Z,48.23
2023-05-17T07:54:39.092Z,48.47
2023-05-17T07:57:08.165Z,48.59
2023-05-17T07:59:35.256Z,48.57
2023-05-17T08:02:02.140Z,48.37
2023-05-17T08:04:29.811Z,48.07
2023-05-17T08:06:56.851Z,48.42
2023-05-17T08:09:23.854Z,48.49
2023-05-17T08:11:51.585Z,48.34
2023-05-17T08:14:24.877Z,48.45
2023-05-17T08:16:52.393Z,48.32
2023-05-17T08:19:19.443Z,48.37
2023-05-17T08:21:46.588Z,48.22
2023-05-17T08:24:25.389Z,48.45
2023-05-17T08:26:52.389Z,48.27
2023-05-17T08:29:19.322Z,48.51
2023-05-17T08:31:46.479Z,48.29
2023-05-17T08:34:13.778Z,48.29
2023-05-17T08:36:40.818Z,48.65
2023-05-17T08:39:08.847Z,48.63
2023-05-17T08:41:37.108Z,48.53
2023-05-17T08:44:09.573Z,48.61
2023-05-17T08:46:38.788Z,48.71
2023-05-17T08:49:06.697Z,48.70
2023-05-17T08:51:33.991Z,48.65
2023-05-17T08:54:32.529Z,48.51
2023-05-17T08:57:00.463Z,48.43
2023-05-17T08:59:27.712Z,48.19
2023-05-17T09:01:55.268Z,48.59
2023-05-17T09:04:41.102Z,48.40
2023-05-17T09:07:08.088Z,48.31
2023-05-17T09:09:35.338Z,48.45
2023-05-17T09:12:04.677Z,48.36
2023-05-17T09:14:39.914Z,48.36
2023-05-17T09:17:07.341Z,48.36
2023-05-17T09:19:34.613Z,48.34
2023-05-17T09:22:02.925Z,48.38
2023-05-17T09:24:36.618Z,48.11
2023-05-17T09:27:10.209Z,48.23
2023-05-17T09:29:39.567Z,48.00
2023-05-17T09:32:09.637Z,48.16
2023-05-17T09:34:43.043Z,47.92
2023-05-17T09:39:56.534Z,47.93
2023-05-17T09:42:26.677Z,47.76
2023-05-17T09:44:57.901Z,47.86
2023-05-17T09:47:26.016Z,47.94
2023-05-17T09:49:53.301Z,48.00
2023-05-17T09:52:21.589Z,47.69
2023-05-17T09:54:52.801Z,47.51
2023-05-17T09:57:19.699Z,47.62
2023-05-17T09:59:47.325Z,47.58
2023-05-17T10:02:20.132Z,47.58
2023-05-17T10:04:49.670Z,47.37
2023-05-17T10:07:20.001Z,47.30
2023-05-17T10:09:47.788Z,47.39
2023-05-17T10:12:17.584Z,47.60
2023-05-17T10:14:45.274Z,47.22
2023-05-17T10:17:13.151Z,47.13
2023-05-17T10:19:40.341Z,47.32
2023-05-17T10:22:21.588Z,47.06
2023-05-17T10:24:51.740Z,47.43
2023-05-17T10:27:19.164Z,47.35
2023-05-17T10:29:49.879Z,47.14
2023-05-17T10:32:19.667Z,47.35
2023-05-17T10:34:54.476Z,47.28
2023-05-17T10:37:29.603Z,47.16
2023-05-17T10:39:57.376Z,47.21
2023-05-17T10:42:25.275Z,47.01
2023-05-17T10:44:53.744Z,47.23
2023-05-17T10:47:20.715Z,47.24
2023-05-17T10:49:48.484Z,47.32
2023-05-17T10:52:16.916Z,47.11
2023-05-17T10:54:45.212Z,47.03
2023-05-17T10:57:19.862Z,46.75
2023-05-17T10:59:49.859Z,46.86
2023-05-17T11:02:23.850Z,47.06
2023-05-17T11:04:54.233Z,47.00
2023-05-17T11:07:22.420Z,47.01
2023-05-17T11:09:52.705Z,47.16
2023-05-17T11:12:22.685Z,46.94
2023-05-17T11:17:27.016Z,47.01
2023-05-17T11:19:55.588Z,46.97
2023-05-17T11:22:24.512Z,46.91
2023-05-17T11:24:53.087Z,47.03
2023-05-17T11:27:20.879Z,46.69
2023-05-17T11:29:48.767Z,47.01
2023-05-17T11:32:16.044Z,46.76
2023-05-17T11:34:43.014Z,46.64
2023-05-17T11:37:12.173Z,46.71
2023-05-17T11:39:58.979Z,46.90
2023-05-17T11:42:26.584Z,46.65
2023-05-17T11:44:56.862Z,46.60
2023-05-17T11:47:23.888Z,46.51
2023-05-17T11:49:54.313Z,46.65
2023-05-17T11:52:22.868Z,46.48
2023-05-17T11:54:50.456Z,46.62
2023-05-17T11:57:18.459Z,46.72
2023-05-17T11:59:45.339Z,46.58
2023-05-17T12:02:26.265Z,46.87
2023-05-17T12:04:53.286Z,46.60
2023-05-17T12:07:20.447Z,46.72
2023-05-17T12:09:48.129Z,46.69
2023-05-17T12:12:15.872Z,46.75
2023-05-17T12:14:44.720Z,46.69
2023-05-17T12:17:13.683Z,46.94
2023-05-17T12:19:40.887Z,46.92
2023-05-17T12:22:08.979Z,46.65
2023-05-17T12:24:38.073Z,46.69
2023-05-17T12:27:05.099Z,46.88
2023-05-17T12:29:32.245Z,46.85
2023-05-17T12:31:59.941Z,46.95
2023-05-17T12:34:27.173Z,46.98
2023-05-17T12:36:54.556Z,46.80
2023-05-17T12:39:24.955Z,46.86
2023-05-17T12:41:52.689Z,46.88
2023-05-17T12:44:35.458Z,46.70
2023-05-17T12:47:03.601Z,46.85
2023-05-17T12:49:30.523Z,47.14
2023-05-17T12:52:04.001Z,47.01
2023-05-17T12:54:31.078Z,46.98
2023-05-17T12:56:58.111Z,47.30
2023-05-17T12:59:25.956Z,47.15
2023-05-17T13:02:06.778Z,47.05
2023-05-17T13:04:38.369Z,47.11
2023-05-17T13:07:05.369Z,47.13
2023-05-17T13:09:32.985Z,47.24
2023-05-17T13:12:01.079Z,47.30
2023-05-17T13:14:33.852Z,47.13
2023-05-17T13:19:26.915Z,47.44
2023-05-17T13:21:53.500Z,47.42
2023-05-17T13:24:20.075Z,47.30
2023-05-17T13:26:46.655Z,47.58
2023-05-17T13:29:13.283Z,47.54
2023-05-17T13:31:41.800Z,47.33
2023-05-17T13:34:08.386Z,47.25
2023-05-17T13:36:34.992Z,47.31
2023-05-17T13:39:02.240Z,47.32
2023-05-17T13:41:28.840Z,47.57
2023-05-17T13:46:24.001Z,47.65
2023-05-17T13:48:50.644Z,47.27
2023-05-17T13:51:17.317Z,47.27
2023-05-17T13:53:44.785Z,47.58
2023-05-17T13:56:11.518Z,47.35
2023-05-17T13:58:38.063Z,47.22
2023-05-17T14:01:04.795Z,47.33
2023-05-17T14:03:31.981Z,47.33
2023-05-17T14:05:58.655Z,47.12
2023-05-17T14:08:25.290Z,47.01
2023-05-17T14:10:51.927Z,46.99
2023-05-17T14:15:44.776Z,47.13
2023-05-17T14:18:11.460Z,47.04
2023-05-17T14:20:38.099Z,46.98
2023-05-17T14:23:04.616Z,47.31
2023-05-17T14:25:31.181Z,47.07
2023-05-17T14:30:33.122Z,47.50
2023-05-17T14:32:59.838Z,47.43
2023-05-17T14:35:26.386Z,47.83
2023-05-17T14:37:53.074Z,48.04
2023-05-17T14:40:19.592Z,48.13
2023-05-17T14:42:46.667Z,48.82
2023-05-17T14:45:14.001Z,48.70
2023-05-17T14:47:40.812Z,49.08
2023-05-17T14:50:08.004Z,49.14
2023-05-17T14:52:35.018Z,49.32
2023-05-17T14:55:02.091Z,49.64
2023-05-17T14:57:28.665Z,49.77
2023-05-17T14:59:55.267Z,49.64
2023-05-17T15:02:21.864Z,49.97
2023-05-17T15:04:48.734Z,49.45
2023-05-17T15:07:15.447Z,49.38
2023-05-17T15:09:43.434Z,49.21
2023-05-17T15:12:13.102Z,49.11
2023-05-17T15:14:40.602Z,48.98
2023-05-17T15:17:07.420Z,48.82
2023-05-17T15:19:34.077Z,48.84
2023-05-17T15:22:01.822Z,48.68
2023-05-17T15:24:29.494Z,48.46
2023-05-17T15:26:56.198Z,48.59
2023-05-17T15:29:22.773Z,48.45
2023-05-17T15:31:49.319Z,48.34
2023-05-17T15:34:16.115Z,48.29
2023-05-17T15:36:42.867Z,48.19
2023-05-17T15:39:09.578Z,48.01
2023-05-17T15:44:02.726Z,47.54
2023-05-17T15:46:29.287Z,47.35
2023-05-17T15:48:56.639Z,47.15
2023-05-17T15:51:23.408Z,47.07
2023-05-17T15:53:50.034Z,47.03
2023-05-17T15:56:16.484Z,47.12
2023-05-17T15:58:43.004Z,46.95
2023-05-17T16:06:04.638Z,46.70
2023-05-17T16:08:31.615Z,46.86
2023-05-17T16:10:59.307Z,46.60
2023-05-17T16:13:26.970Z,46.75
2023-05-17T16:15:53.528Z,46.48
2023-05-17T16:18:20.197Z,46.41
2023-05-17T16:20:46.903Z,46.29
2023-05-17T16:25:38.814Z,46.41
2023-05-17T16:28:05.371Z,46.24
2023-05-17T16:30:32.073Z,46.14
2023-05-17T16:32:58.807Z,46.17
2023-05-17T16:35:25.702Z,46.19
2023-05-17T16:40:17.792Z,46.43
2023-05-17T16:42:44.754Z,46.22
2023-05-17T16:45:11.465Z,46.28
2023-05-17T16:47:38.233Z,46.31
2023-05-17T16:50:05.742Z,46.48
2023-05-17T16:52:32.294Z,46.17
2023-05-17T16:55:03.518Z,46.27
2023-05-17T16:57:31.809Z,46.28
2023-05-17T17:04:53.969Z,46.22
2023-05-17T17:07:20.799Z,46.41
2023-05-17T17:09:47.500Z,46.34
2023-05-17T17:12:24.241Z,46.29
2023-05-17T17:14:52.457Z,46.24
2023-05-17T17:17:18.978Z,46.37
2023-05-17T17:19:45.693Z,46.48
2023-05-17T17:22:14.237Z,46.58
2023-05-17T17:24:40.843Z,46.52
2023-05-17T17:27:07.442Z,46.65
2023-05-17T17:29:34.202Z,46.86
2023-05-17T17:32:00.867Z,47.13
2023-05-17T17:34:27.620Z,47.04
2023-05-17T17:36:54.433Z,47.07
2023-05-17T17:39:21.061Z,47.11
2023-05-17T17:41:47.707Z,46.97
2023-05-17T17:44:15.289Z,47.11
2023-05-17T17:46:42.528Z,46.94
2023-05-17T17:49:09.087Z,47.13
2023-05-17T17:51:35.692Z,46.93
2023-05-17T17:54:05.013Z,46.92
2023-05-17T17:56:32.877Z,46.85
2023-05-17T17:58:59.898Z,46.95
2023-05-17T18:01:26.838Z,46.70
2023-05-17T18:03:53.609Z,46.97
2023-05-17T18:06:20.439Z,47.04
2023-05-17T18:08:46.992Z,46.83
2023-05-17T18:11:14.304Z,46.92
2023-05-17T18:13:41.653Z,46.87
2023-05-17T18:16:08.553Z,46.92
2023-05-17T18:18:37.400Z,46.88
2023-05-17T18:21:04.707Z,46.99
2023-05-17T18:23:31.870Z,46.99
2023-05-17T18:25:58.948Z,47.07
2023-05-17T18:28:40.894Z,46.83
2023-05-17T18:31:09.423Z,47.02
2023-05-17T18:33:36.546Z,47.08
2023-05-17T18:36:03.570Z,47.18
2023-05-17T18:38:30.607Z,46.87
2023-05-17T18:40:57.965Z,47.01
2023-05-17T18:43:24.834Z,47.16
2023-05-17T18:45:51.818Z,46.90
2023-05-17T18:48:18.954Z,47.17
2023-05-17T18:50:46.277Z,47.03
2023-05-17T18:53:13.413Z,47.09
2023-05-17T18:55:41.418Z,47.15
2023-05-17T18:58:08.465Z,47.31
2023-05-17T19:00:35.576Z,47.17
2023-05-17T19:03:04.938Z,47.53
2023-05-17T19:05:32.050Z,47.54
2023-05-17T19:07:59.418Z,47.54
2023-05-17T19:10:26.761Z,47.67
2023-05-17T19:12:53.822Z,47.76
2023-05-17T19:15:21.454Z,47.83
2023-05-17T19:17:48.792Z,47.70
2023-05-17T19:20:16.219Z,47.71
2023-05-17T19:22:43.437Z,47.78
2023-05-17T19:25:10.691Z,47.81
2023-05-17T19:27:37.990Z,47.65
2023-05-17T19:30:06.480Z,47.79
2023-05-17T19:32:33.880Z,47.80
2023-05-17T19:35:01.894Z,47.77
2023-05-17T19:37:29.047Z,47.78
2023-05-17T19:39:56.317Z,47.92
2023-05-17T19:42:24.251Z,47.63
2023-05-17T19:44:51.216Z,47.79
2023-05-17T19:47:18.204Z,47.84
2023-05-17T19:49:45.137Z,48.05
2023-05-17T19:52:12.313Z,48.06
2023-05-17T19:54:39.437Z,47.63
2023-05-17T19:57:06.538Z,47.90
2023-05-17T19:59:33.864Z,47.80
2023-05-17T20:02:00.980Z,47.93
2023-05-17T20:04:28.162Z,47.75
2023-05-17T20:06:55.107Z,47.59
2023-05-17T20:09:22.216Z,47.71
2023-05-17T20:11:49.406Z,47.86
2023-05-17T20:14:16.465Z,47.69
2023-05-17T20:16:43.528Z,47.99
2023-05-17T20:19:11.129Z,48.07
2023-05-17T20:21:38.351Z,48.01
2023-05-17T20:24:07.155Z,48.15
2023-05-17T20:26:37.360Z,47.95
2023-05-17T20:29:07.541Z,48.10
2023-05-17T20:31:35.297Z,48.24
2023-05-17T20:34:02.510Z,48.10
2023-05-17T20:36:29.752Z,48.23
2023-05-17T20:38:56.689Z,47.90
2023-05-17T20:41:24.121Z,48.00
2023-05-17T20:43:51.981Z,48.33
2023-05-17T20:46:19.021Z,48.24
2023-05-17T20:48:48.401Z,48.26
2023-05-17T20:51:16.114Z,48.07
2023-05-17T20:53:43.284Z,47.96
2023-05-17T20:56:10.861Z,48.07
2023-05-17T20:58:37.744Z,48.03
2023-05-17T21:01:06.009Z,47.91
2023-05-17T21:03:34.361Z,47.83
2023-05-17T21:06:01.925Z,47.76
2023-05-17T21:08:28.950Z,48.00
2023-05-17T21:10:56.355Z,47.89
2023-05-17T21:13:25.787Z,47.92
2023-05-17T21:15:53.776Z,47.83
2023-05-17T21:18:21.259Z,47.96
2023-05-17T21:20:49.304Z,47.64
2023-05-17T21:23:16.162Z,47.90
2023-05-17T21:25:44.529Z,47.91
2023-05-17T21:28:11.446Z,48.08
2023-05-17T21:30:38.378Z,48.04
2023-05-17T21:33:05.785Z,48.29
2023-05-17T21:35:32.839Z,48.39
2023-05-17T21:37:59.705Z,48.71
2023-05-17T21:40:26.693Z,49.18
2023-05-17T21:42:53.624Z,49.75
2023-05-17T21:45:20.695Z,49.94
2023-05-17T21:47:48.843Z,49.83
2023-05-17T21:50:16.460Z,50.41
2023-05-17T21:52:44.970Z,50.12
2023-05-17T21:55:11.868Z,49.99
2023-05-17T21:57:38.782Z,49.96
2023-05-17T22:00:06.231Z,50.05
2023-05-17T22:02:34.209Z,50.08
2023-05-17T22:05:01.426Z,50.10
2023-05-17T22:07:28.408Z,50.18
2023-05-17T22:09:55.377Z,49.97
2023-05-17T22:12:25.765Z,49.84
2023-05-17T22:14:54.356Z,50.03
2023-05-17T22:17:29.542Z,49.97
2023-05-17T22:20:03.372Z,50.04
2023-05-17T22:22:32.017Z,50.08
2023-05-17T22:24:58.855Z,50.06
2023-05-17T22:27:25.775Z,50.20
2023-05-17T22:29:52.673Z,49.86
2023-05-17T22:32:19.525Z,49.87
2023-05-17T22:34:46.341Z,49.87
2023-05-17T22:37:13.219Z,49.96
2023-05-17T22:39:40.916Z,49.79
2023-05-17T22:42:08.398Z,49.87
2023-05-17T22:44:36.330Z,50.03
2023-05-17T22:47:04.869Z,49.96
2023-05-17T22:49:34.276Z,49.94
2023-05-17T22:52:04.649Z,49.51
2023-05-17T22:54:33.364Z,49.41
2023-05-17T22:57:01.042Z,49.36
2023-05-17T22:59:28.639Z,49.53
2023-05-17T23:01:55.764Z,49.19
2023-05-17T23:04:26.261Z,49.28
2023-05-17T23:06:54.110Z,49.01
2023-05-17T23:09:22.099Z,49.07
2023-05-17T23:11:50.186Z,49.00
2023-05-17T23:14:17.726Z,48.98
2023-05-17T23:16:44.848Z,49.08
2023-05-17T23:19:13.543Z,48.93
2023-05-17T23:21:40.388Z,49.13
2023-05-17T23:24:08.202Z,49.02
2023-05-17T23:26:35.325Z,49.35
2023-05-17T23:29:03.695Z,49.50
2023-05-17T23:31:30.510Z,49.11
2023-05-17T23:33:57.315Z,49.32
2023-05-17T23:36:24.120Z,49.46
2023-05-17T23:38:51.018Z,49.40
2023-05-17T23:41:19.919Z,49.71
2023-05-17T23:43:47.061Z,49.78
2023-05-17T23:46:13.923Z,49.83
2023-05-17T23:48:40.825Z,49.91
2023-05-17T23:51:08.037Z,50.21
2023-05-17T23:53:35.127Z,50.26
2023-05-17T23:56:02.136Z,50.30
2023-05-17T23:58:28.981Z,50.46
